Time;durP1;ratioP1;P1;durP2;ratioP2;P2;SDS_P1;SDS_P2;PMS_P1;PMS_P2;Temp;Humidity;BMP_temperature;BMP_pressure;BME280_temperature;BME280_humidity;BME280_pressure;Samples;Min_cycle;Max_cycle;Signal;HPM_P1;HPM_P2
2022/01/26 00:05:47;;;;;;;27.48;13.93;;;;;;;2.46;86.54;102347.31;5024504;28;20037;-23
2022/01/26 00:06:38;;;;;;;26.10;13.88;;;;;;;2.47;86.87;102351.72;5028998;28;20559;-23
2022/01/26 00:09:05;;;;;;;26.05;13.75;;;;;;;2.44;86.73;102342.91;5027052;28;20041;-23
2022/01/26 00:11:31;;;;;;;27.45;15.05;;;;;;;2.44;86.56;102342.03;5026871;28;20569;-23
2022/01/26 00:13:59;;;;;;;25.02;13.63;;;;;;;2.45;86.70;102349.03;5026750;28;20116;-23
2022/01/26 00:16:36;;;;;;;23.40;13.98;;;;;;;2.44;86.63;102336.81;5027369;28;20026;-23
2022/01/26 00:19:03;;;;;;;25.00;12.85;;;;;;;2.43;86.78;102341.13;5025572;28;20112;-23
2022/01/26 00:21:36;;;;;;;29.33;14.48;;;;;;;2.43;86.79;102335.91;5025468;28;20453;-23
2022/01/26 00:29:35;;;;;;;26.77;13.75;;;;;;;2.42;86.69;102334.13;5027145;28;20028;-23
2022/01/26 00:40:26;;;;;;;28.00;15.35;;;;;;;2.42;86.73;102326.31;5022217;28;20036;-23
2022/01/26 00:42:55;;;;;;;30.98;14.27;;;;;;;2.42;86.88;102323.72;5026192;28;20028;-23
2022/01/26 00:45:25;;;;;;;32.85;14.90;;;;;;;2.42;86.66;102320.22;5020895;28;20051;-23
2022/01/26 00:47:51;;;;;;;29.75;16.05;;;;;;;2.41;86.43;102327.13;5026960;28;20064;-23
2022/01/26 00:50:16;;;;;;;28.35;14.25;;;;;;;2.41;86.85;102324.50;5028645;28;20041;-23
2022/01/26 00:52:45;;;;;;;28.73;15.60;;;;;;;2.41;86.81;102321.03;5028517;28;20060;-23
2022/01/26 00:55:15;;;;;;;28.70;14.73;;;;;;;2.39;86.94;102310.53;5025766;28;20065;-23
2022/01/26 00:57:41;;;;;;;31.45;15.57;;;;;;;2.39;86.84;102310.53;5021591;28;20028;-23
2022/01/26 01:00:11;;;;;;;30.40;15.75;;;;;;;2.39;86.87;102307.94;5022605;28;20030;-23
2022/01/26 01:02:36;;;;;;;24.00;13.55;;;;;;;2.39;86.91;102307.94;5022917;28;20025;-23
2022/01/26 01:05:10;;;;;;;30.83;15.60;;;;;;;2.40;86.56;102319.25;5020788;28;20068;-23
2022/01/26 01:07:38;;;;;;;31.77;16.27;;;;;;;2.39;86.89;102314.84;5025423;28;20024;-23
2022/01/26 01:10:05;;;;;;;32.75;16.38;;;;;;;2.39;86.52;102320.94;5023361;28;20075;-23
2022/01/26 01:12:33;;;;;;;37.15;15.77;;;;;;;2.39;87.04;102318.34;5021341;28;20033;-23
2022/01/26 01:14:59;;;;;;;30.02;16.10;;;;;;;2.39;87.05;102318.34;5023915;28;20045;-23
2022/01/26 01:17:32;;;;;;;29.35;14.32;;;;;;;2.39;86.81;102338.28;5024220;28;20025;-23
2022/01/26 01:22:49;;;;;;;30.38;15.15;;;;;;;2.39;86.69;102333.06;5025676;28;20201;-23
2022/01/26 01:30:29;;;;;;;35.30;15.82;;;;;;;2.39;86.62;102333.97;5023495;28;20105;-23
2022/01/26 01:33:09;;;;;;;28.77;15.15;;;;;;;2.37;86.58;102332.97;5025324;28;20047;-23
2022/01/26 01:35:38;;;;;;;29.83;14.27;;;;;;;2.37;86.48;102340.78;5022145;28;20115;-23
2022/01/26 01:38:13;;;;;;;29.98;14.95;;;;;;;2.39;86.82;102343.47;5023169;28;20048;-23
2022/01/26 01:40:41;;;;;;;30.95;15.00;;;;;;;2.38;86.71;102337.41;5023454;28;20036;-23
2022/01/26 01:43:07;;;;;;;30.92;14.23;;;;;;;2.38;86.65;102332.19;5023218;28;20466;-23
2022/01/26 01:45:46;;;;;;;27.70;15.70;;;;;;;2.38;86.69;102331.28;5007550;28;20031;-23
2022/01/26 01:48:15;;;;;;;30.92;15.07;;;;;;;2.37;86.74;102335.59;5024005;28;20100;-23
2022/01/26 01:50:42;;;;;;;32.63;14.95;;;;;;;2.38;86.81;102337.41;5019879;28;20470;-23
2022/01/26 01:53:09;;;;;;;26.52;13.00;;;;;;;2.37;86.64;102340.78;5024193;28;20033;-23
2022/01/26 01:55:42;;;;;;;29.17;14.35;;;;;;;2.37;86.61;102337.31;5023826;28;20022;-23
2022/01/26 01:58:09;;;;;;;26.10;14.70;;;;;;;2.37;86.64;102338.19;5025537;28;20065;-23
2022/01/26 02:00:36;;;;;;;28.70;13.40;;;;;;;2.37;86.85;102338.19;5025704;28;20029;-23
2022/01/26 02:03:02;;;;;;;34.05;14.65;;;;;;;2.36;87.29;102326.00;5023021;28;20043;-23
2022/01/26 02:05:28;;;;;;;30.17;14.50;;;;;;;2.36;86.76;102328.59;5023646;28;20160;-23
2022/01/26 02:07:53;;;;;;;27.38;15.05;;;;;;;2.35;86.58;102321.63;5021767;28;20507;-23
2022/01/26 02:10:22;;;;;;;30.00;14.15;;;;;;;2.37;86.66;102313.88;5023079;28;20428;-23
2022/01/26 02:12:48;;;;;;;31.02;14.98;;;;;;;2.34;86.85;102311.09;5019566;28;20404;-23
2022/01/26 02:15:20;;;;;;;34.63;15.80;;;;;;;2.34;86.63;102309.41;5019641;28;20389;-23
2022/01/26 02:51:09;;;;;;;28.45;13.85;;;;;;;2.29;86.68;102295.25;5021667;28;20052;-23
2022/01/26 02:56:22;;;;;;;30.77;14.70;;;;;;;2.29;86.84;102290.03;5021903;28;20091;-23
2022/01/26 02:59:05;;;;;;;28.10;13.30;;;;;;;2.28;86.62;102290.84;5023832;28;20025;-23
2022/01/26 03:04:22;;;;;;;30.60;14.20;;;;;;;2.28;86.65;102296.97;5021273;28;20028;-23
2022/01/26 03:06:56;;;;;;;30.42;14.43;;;;;;;2.26;86.81;102301.19;5021843;28;20029;-23
2022/01/26 03:09:28;;;;;;;25.85;13.77;;;;;;;2.27;86.88;102294.28;5023496;28;20127;-23
2022/01/26 03:11:54;;;;;;;29.98;16.02;;;;;;;2.26;86.52;102289.88;5021890;28;20022;-23
2022/01/26 03:14:33;;;;;;;30.42;14.75;;;;;;;2.26;86.79;102287.28;5024434;28;20017;-23
2022/01/26 03:17:07;;;;;;;33.70;14.55;;;;;;;2.24;86.66;102289.81;5023337;28;20561;-23
2022/01/26 03:19:40;;;;;;;26.80;14.07;;;;;;;2.25;86.49;102289.00;5022680;28;20030;-23
2022/01/26 03:30:00;;;;;;;29.83;13.85;;;;;;;2.24;86.62;102274.19;5018171;28;20049;-23
2022/01/26 03:35:00;;;;;;;30.65;14.65;;;;;;;2.22;86.37;102270.59;5020174;28;20029;-23
2022/01/26 03:37:33;;;;;;;30.30;13.77;;;;;;;2.21;86.58;102274.03;5022485;28;20029;-23
2022/01/26 03:39:59;;;;;;;34.15;14.57;;;;;;;2.22;86.70;102267.09;5021831;28;20397;-23
2022/01/26 03:42:24;;;;;;;32.60;14.20;;;;;;;2.21;86.50;102275.72;5023559;28;20025;-23
2022/01/26 03:44:50;;;;;;;31.70;14.85;;;;;;;2.20;86.62;102273.97;5020744;28;20029;-23
2022/01/26 03:47:16;;;;;;;30.13;14.68;;;;;;;2.20;86.51;102273.97;5019342;28;20056;-23
2022/01/26 03:49:42;;;;;;;28.10;13.15;;;;;;;2.20;86.65;102273.97;5023416;28;20029;-23
2022/01/26 03:52:08;;;;;;;28.90;14.02;;;;;;;2.20;86.32;102271.34;5027356;28;20041;-23
2022/01/26 03:54:33;;;;;;;29.45;13.50;;;;;;;2.20;86.75;102263.53;5024496;28;20029;-23
2022/01/26 03:56:59;;;;;;;27.05;14.85;;;;;;;2.18;86.64;102272.19;5024512;28;20712;-23
2022/01/26 03:59:25;;;;;;;28.45;14.73;;;;;;;2.17;86.68;102270.38;5016593;28;20418;-23
2022/01/26 04:01:50;;;;;;;27.98;13.75;;;;;;;2.17;86.56;102267.75;5017460;28;20033;-23
2022/01/26 04:04:16;;;;;;;28.40;15.05;;;;;;;2.17;86.58;102265.16;5018107;28;20393;-23
2022/01/26 04:06:42;;;;;;;25.92;13.35;;;;;;;2.16;86.42;102262.47;5022928;28;20025;-23
2022/01/26 04:09:10;;;;;;;28.70;14.30;;;;;;;2.16;86.46;102271.19;5028766;28;20033;-23
2022/01/26 04:11:46;;;;;;;27.83;13.23;;;;;;;2.15;86.46;102272.00;5022703;28;20025;-23
2022/01/26 04:14:18;;;;;;;26.52;13.57;;;;;;;2.14;86.42;102265.00;5025008;28;20169;-23
2022/01/26 04:16:44;;;;;;;29.77;14.52;;;;;;;2.13;86.33;102247.59;5024637;28;20389;-23
2022/01/26 04:19:10;;;;;;;28.83;13.77;;;;;;;2.13;86.44;102263.22;5019248;28;20087;-24
2022/01/26 04:24:28;;;;;;;27.48;13.32;;;;;;;2.12;86.49;102260.53;5020005;28;20163;-24
2022/01/26 04:29:22;;;;;;;24.10;13.38;;;;;;;2.11;86.73;102266.56;5020732;28;20025;-23
2022/01/26 04:31:48;;;;;;;24.77;12.88;;;;;;;2.11;86.47;102259.66;5024502;28;20021;-23
2022/01/26 04:34:13;;;;;;;26.90;14.02;;;;;;;2.09;86.33;102256.06;5024678;28;20611;-23
2022/01/26 04:36:47;;;;;;;27.45;13.65;;;;;;;2.08;86.17;102248.19;5023059;28;20414;-23
2022/01/26 04:39:17;;;;;;;27.83;14.13;;;;;;;2.09;86.47;102248.25;5022409;28;20048;-23
2022/01/26 04:41:50;;;;;;;19.70;11.57;;;;;;;2.09;86.56;102239.53;5023719;28;20029;-23
2022/01/26 04:44:22;;;;;;;26.27;13.32;;;;;;;2.08;86.29;102228.25;5022136;28;20064;-24
2022/01/26 04:46:48;;;;;;;25.77;12.85;;;;;;;2.07;86.41;102221.28;5019170;28;20030;-23
2022/01/26 04:49:14;;;;;;;25.25;12.93;;;;;;;2.07;86.56;102231.69;5017841;28;20033;-24
2022/01/26 04:51:39;;;;;;;23.10;12.63;;;;;;;2.07;86.26;102226.47;5027568;28;20260;-23
2022/01/26 04:54:05;;;;;;;24.55;12.80;;;;;;;2.07;86.36;102230.78;5022822;28;20043;-23
2022/01/26 04:56:30;;;;;;;23.65;11.88;;;;;;;2.06;86.30;102227.28;5019728;28;20037;-24
2022/01/26 04:58:56;;;;;;;22.17;12.63;;;;;;;2.03;86.40;102217.59;5019907;28;20028;-23
2022/01/26 05:01:22;;;;;;;26.13;12.50;;;;;;;2.05;86.51;102222.88;5021190;28;20371;-23
2022/01/26 05:03:47;;;;;;;24.58;12.75;;;;;;;2.04;86.40;102221.13;5023292;28;20396;-23
2022/01/26 05:06:13;;;;;;;25.35;13.30;;;;;;;2.04;86.20;102215.91;5023760;28;20525;-23
2022/01/26 05:08:39;;;;;;;23.70;12.05;;;;;;;2.03;86.41;102211.50;5026261;28;20021;-23
2022/01/26 05:11:07;;;;;;;25.75;13.25;;;;;;;2.03;86.37;102216.69;5028704;28;20647;-23
2022/01/26 05:13:33;;;;;;;23.33;12.40;;;;;;;2.02;86.51;102221.03;5021896;28;20025;-24
2022/01/26 05:15:58;;;;;;;23.45;12.55;;;;;;;2.03;86.38;102227.09;5020494;28;20021;-23
2022/01/26 05:18:24;;;;;;;22.90;12.98;;;;;;;2.03;86.50;102229.72;5024204;28;20025;-23
2022/01/26 05:20:51;;;;;;;22.10;12.52;;;;;;;2.02;86.40;102230.53;5020793;28;20079;-23
2022/01/26 05:23:16;;;;;;;20.58;12.13;;;;;;;2.02;86.38;102225.31;5022228;28;20385;-24
2022/01/26 05:25:42;;;;;;;22.63;11.73;;;;;;;2.01;86.25;102231.34;5020740;28;20025;-23
2022/01/26 05:28:08;;;;;;;21.70;13.02;;;;;;;2.01;86.35;102228.75;5020981;28;20021;-23
2022/01/26 05:30:33;;;;;;;24.90;12.65;;;;;;;2.00;86.18;102225.25;5023840;28;20022;-23
2022/01/26 05:32:59;;;;;;;23.80;12.05;;;;;;;2.00;86.53;102229.56;5024171;28;20032;-23
2022/01/26 05:35:25;;;;;;;21.33;11.15;;;;;;;2.01;86.23;102231.34;5023159;28;20087;-23
2022/01/26 05:37:50;;;;;;;21.58;12.55;;;;;;;2.01;86.34;102231.34;5022590;28;20420;-23
2022/01/26 05:40:16;;;;;;;23.30;12.57;;;;;;;2.00;86.53;102232.19;5025685;28;20026;-23
2022/01/26 05:42:42;;;;;;;20.60;12.15;;;;;;;1.98;86.55;102226.91;5022906;28;20038;-23
2022/01/26 05:45:18;;;;;;;23.85;12.20;;;;;;;1.98;86.56;102232.09;5023952;28;20061;-24
2022/01/26 05:47:44;;;;;;;20.13;12.73;;;;;;;1.99;86.46;102227.78;5025584;28;21720;-24
2022/01/26 05:50:09;;;;;;;24.38;12.27;;;;;;;1.97;86.29;102238.09;5024261;28;20026;-23
2022/01/26 05:52:35;;;;;;;23.08;13.32;;;;;;;1.97;86.37;102245.91;5022956;28;20029;-23
2022/01/26 05:55:00;;;;;;;25.70;13.05;;;;;;;1.98;86.19;102252.00;5021442;28;20412;-23
2022/01/26 05:57:26;;;;;;;21.48;12.25;;;;;;;1.97;86.53;102252.84;5025431;28;20033;-24
2022/01/26 05:59:54;;;;;;;20.25;11.73;;;;;;;1.96;86.48;102248.47;5023288;28;20124;-23
2022/01/26 06:02:19;;;;;;;24.33;11.95;;;;;;;1.96;86.41;102256.25;5023645;28;20048;-23
2022/01/26 06:04:46;;;;;;;22.90;11.30;;;;;;;1.95;86.50;102244.03;5021331;28;20025;-23
2022/01/26 06:07:11;;;;;;;25.00;13.13;;;;;;;1.95;86.46;102228.44;5021120;28;20104;-23
2022/01/26 06:09:37;;;;;;;23.50;11.80;;;;;;;1.95;86.32;102225.81;5024805;28;20116;-23
2022/01/26 06:12:03;;;;;;;22.75;13.52;;;;;;;1.94;86.47;102230.16;5023284;28;20021;-23
2022/01/26 06:14:28;;;;;;;24.75;13.25;;;;;;;1.94;86.47;102229.25;5021627;28;20386;-23
2022/01/26 06:16:54;;;;;;;25.38;12.80;;;;;;;1.93;86.50;102233.56;5021747;28;20032;-23
2022/01/26 06:19:19;;;;;;;22.60;12.63;;;;;;;1.92;86.53;102222.28;5025065;28;20028;-23
2022/01/26 06:21:45;;;;;;;22.52;12.20;;;;;;;1.94;86.54;102218.84;5020501;28;20025;-23
2022/01/26 06:24:10;;;;;;;22.80;12.75;;;;;;;1.93;86.50;102212.72;5024015;28;20021;-24
2022/01/26 06:26:37;;;;;;;24.25;12.45;;;;;;;1.91;86.44;102223.06;5024385;28;20468;-23
2022/01/26 06:29:02;;;;;;;22.27;12.32;;;;;;;1.91;86.22;102215.25;5021906;28;20022;-23
2022/01/26 06:31:28;;;;;;;25.98;12.40;;;;;;;1.94;86.61;102211.03;5019934;28;20121;-23
2022/01/26 06:33:54;;;;;;;20.33;11.68;;;;;;;1.92;86.43;102206.66;5020273;28;20031;-23
2022/01/26 06:36:20;;;;;;;24.60;11.93;;;;;;;1.92;86.34;102201.44;5022285;28;20041;-23
2022/01/26 06:38:46;;;;;;;20.50;11.32;;;;;;;1.92;86.36;102211.84;5023548;28;20136;-23
2022/01/26 06:41:14;;;;;;;23.33;12.57;;;;;;;1.91;86.56;102207.44;5022693;28;20065;-23
2022/01/26 06:43:48;;;;;;;24.83;11.68;;;;;;;1.91;86.34;102201.38;5020483;28;20033;-23
2022/01/26 06:46:22;;;;;;;25.50;12.38;;;;;;;1.89;86.62;102198.69;5023483;28;20363;-24
2022/01/26 06:49:28;;;;;;;25.92;12.57;;;;;;;1.91;86.26;102209.19;5017450;28;20025;-24
2022/01/26 06:51:45;;;;;;;22.30;12.00;;;;;;;1.89;86.58;102209.09;5021749;28;20042;-24
2022/01/26 06:54:11;;;;;;;25.08;13.63;;;;;;;1.88;86.60;102209.91;5017639;28;20494;-23
2022/01/26 06:56:37;;;;;;;26.65;12.82;;;;;;;1.88;86.49;102202.09;5020827;28;20674;-23
2022/01/26 06:59:02;;;;;;;24.67;12.60;;;;;;;1.88;86.26;102202.09;5020807;28;20096;-23
2022/01/26 07:01:28;;;;;;;30.23;13.07;;;;;;;1.88;86.28;102209.91;5018467;28;20022;-23
2022/01/26 07:03:53;;;;;;;23.42;12.27;;;;;;;1.87;86.27;102202.91;5023129;28;20375;-23
2022/01/26 07:06:19;;;;;;;19.90;10.85;;;;;;;1.87;86.51;102200.28;5016524;28;20035;-23
2022/01/26 07:08:45;;;;;;;24.67;12.73;;;;;;;1.87;86.41;102208.09;5020802;28;20029;-23
2022/01/26 07:11:11;;;;;;;22.15;12.65;;;;;;;1.86;86.35;102198.53;5017614;28;20028;-23
2022/01/26 07:13:39;;;;;;;25.80;13.45;;;;;;;1.86;86.29;102205.41;5017616;28;20033;-24
2022/01/26 07:21:33;;;;;;;23.25;12.68;;;;;;;1.86;86.26;102219.34;5023931;28;20175;-24
2022/01/26 07:23:59;;;;;;;23.02;12.05;;;;;;;1.84;86.33;102218.38;5021414;28;20108;-23
2022/01/26 07:26:30;;;;;;;23.23;12.32;;;;;;;1.86;86.42;102228.84;5022706;28;20037;-23
2022/01/26 07:28:57;;;;;;;21.23;11.60;;;;;;;1.85;86.52;102225.38;5017707;28;20074;-23
2022/01/26 07:31:23;;;;;;;27.42;13.50;;;;;;;1.85;86.36;102222.75;5018426;28;20030;-23
2022/01/26 07:33:54;;;;;;;24.20;12.20;;;;;;;1.85;86.43;102201.03;5018158;28;20269;-24
2022/01/26 07:36:20;;;;;;;24.88;12.65;;;;;;;1.85;86.62;102209.75;5014021;28;20029;-23
2022/01/26 07:38:50;;;;;;;24.73;12.38;;;;;;;1.84;86.37;102213.19;5022008;28;20076;-23
2022/01/26 07:41:15;;;;;;;30.08;13.38;;;;;;;1.84;86.45;102218.38;5022036;28;20087;-23
2022/01/26 07:43:41;;;;;;;23.20;12.73;;;;;;;1.84;86.35;102226.19;5024172;28;20034;-23
2022/01/26 07:46:09;;;;;;;28.00;13.07;;;;;;;1.85;86.56;102221.84;5024635;28;20038;-24
2022/01/26 07:48:35;;;;;;;24.63;13.38;;;;;;;1.84;86.36;102215.78;5026939;28;20033;-23
2022/01/26 07:51:01;;;;;;;26.23;13.23;;;;;;;1.85;86.31;102212.34;5025106;28;20017;-23
2022/01/26 07:53:26;;;;;;;31.17;12.95;;;;;;;1.85;86.44;102198.44;5022249;28;20034;-23
2022/01/26 07:55:52;;;;;;;22.35;12.23;;;;;;;1.84;86.07;102197.56;5024467;28;20473;-24
2022/01/26 07:58:19;;;;;;;23.13;11.65;;;;;;;1.84;86.30;102197.56;5022766;28;20453;-23
2022/01/26 08:00:45;;;;;;;21.13;12.25;;;;;;;1.85;86.52;102193.22;5028648;28;20037;-24
2022/01/26 08:03:11;;;;;;;22.38;12.80;;;;;;;1.85;86.50;102196.75;5023175;28;20021;-23
2022/01/26 08:05:37;;;;;;;26.33;12.13;;;;;;;1.85;86.54;102201.94;5027150;28;20033;-23
2022/01/26 08:08:02;;;;;;;25.67;13.18;;;;;;;1.84;86.45;102202.78;5025065;28;20048;-23
2022/01/26 08:10:28;;;;;;;22.40;11.38;;;;;;;1.84;86.38;102197.56;5024409;28;20548;-23
2022/01/26 08:12:54;;;;;;;24.52;11.63;;;;;;;1.85;86.64;102206.25;5026128;28;20055;-23
2022/01/26 08:15:20;;;;;;;27.73;12.35;;;;;;;1.85;86.43;102212.34;5027029;28;20029;-23
2022/01/26 08:17:45;;;;;;;24.27;13.23;;;;;;;1.85;86.29;102204.53;5026897;28;20115;-23
2022/01/26 08:20:11;;;;;;;27.38;11.32;;;;;;;1.86;86.46;102205.41;5026935;28;20030;-23
2022/01/26 08:22:37;;;;;;;28.42;12.07;;;;;;;1.85;86.40;102196.75;5022926;28;20037;-23
2022/01/26 08:25:04;;;;;;;28.33;12.48;;;;;;;1.84;86.36;102200.16;5025195;28;20025;-23
2022/01/26 08:27:38;;;;;;;25.63;12.40;;;;;;;1.85;86.40;102204.53;5025173;28;20025;-23
2022/01/26 08:30:09;;;;;;;22.48;11.70;;;;;;;1.86;86.30;102216.72;5027755;28;20009;-23
2022/01/26 08:32:35;;;;;;;27.73;13.33;;;;;;;1.84;86.21;102202.78;5022608;28;20061;-23
2022/01/26 08:35:01;;;;;;;26.95;12.68;;;;;;;1.85;86.34;102209.75;5027271;28;20049;-23
2022/01/26 08:37:26;;;;;;;26.10;12.18;;;;;;;1.85;86.47;102207.16;5024592;28;20034;-23
2022/01/26 08:39:52;;;;;;;26.13;11.80;;;;;;;1.86;86.37;102211.53;5010882;28;20087;-23
2022/01/26 08:42:18;;;;;;;28.70;12.15;;;;;;;1.85;86.31;102207.16;5021629;28;20416;-23
2022/01/26 08:44:43;;;;;;;25.05;13.30;;;;;;;1.85;86.43;102194.13;5025740;28;20072;-23
2022/01/26 08:47:09;;;;;;;24.17;11.38;;;;;;;1.85;86.11;102186.34;5026584;28;20025;-23
2022/01/26 08:49:35;;;;;;;24.38;12.20;;;;;;;1.85;86.31;102196.75;5028134;28;20025;-23
2022/01/26 08:52:01;;;;;;;25.15;11.02;;;;;;;1.86;86.18;102201.13;5023478;28;20110;-23
2022/01/26 08:54:26;;;;;;;25.88;12.63;;;;;;;1.87;86.09;102207.22;5026143;28;20022;-23
2022/01/26 08:56:53;;;;;;;22.50;10.82;;;;;;;1.86;86.26;102203.72;5024601;28;20022;-23
2022/01/26 08:59:20;;;;;;;27.48;12.00;;;;;;;1.87;86.24;102208.09;5023798;28;20038;-23
2022/01/26 09:01:46;;;;;;;26.85;11.77;;;;;;;1.86;86.33;102187.22;5022689;28;20056;-23
2022/01/26 09:04:13;;;;;;;26.92;11.27;;;;;;;1.85;86.09;102170.72;5025487;28;20041;-23
2022/01/26 09:06:51;;;;;;;25.88;10.75;;;;;;;1.86;86.27;102169.00;5023789;28;20056;-23
2022/01/26 09:09:19;;;;;;;22.27;11.07;;;;;;;1.88;86.42;102180.38;5023856;28;20021;-23
2022/01/26 09:11:47;;;;;;;22.27;10.65;;;;;;;1.87;86.35;102199.44;5025565;28;20041;-23
2022/01/26 09:14:17;;;;;;;20.42;10.38;;;;;;;1.86;85.81;102190.72;5021980;28;20044;-23
2022/01/26 09:16:43;;;;;;;26.00;10.80;;;;;;;1.88;86.21;102186.50;5023956;28;20049;-24
2022/01/26 09:19:25;;;;;;;23.13;11.05;;;;;;;1.89;86.01;102184.78;5023576;28;20063;-23
2022/01/26 09:21:51;;;;;;;23.23;9.48;;;;;;;1.88;86.08;102196.00;5021841;28;20041;-23
2022/01/26 09:24:16;;;;;;;20.08;10.27;;;;;;;1.89;85.74;102193.47;5020949;28;20154;-23
2022/01/26 09:26:42;;;;;;;21.52;10.07;;;;;;;1.90;86.25;102207.41;5024521;28;20017;-23
2022/01/26 09:29:07;;;;;;;23.65;11.07;;;;;;;1.90;85.92;102208.25;5021066;28;20068;-24
2022/01/26 09:31:33;;;;;;;20.52;10.50;;;;;;;1.90;86.19;102203.06;5023339;28;20022;-24
2022/01/26 09:33:59;;;;;;;17.48;9.02;;;;;;;1.91;86.14;102210.03;5018874;28;20456;-24
2022/01/26 09:36:24;;;;;;;23.90;9.77;;;;;;;1.91;86.29;102204.84;5025326;28;20055;-24
2022/01/26 09:38:50;;;;;;;19.67;9.82;;;;;;;1.92;86.25;102210.94;5021144;28;20136;-23
2022/01/26 09:41:15;;;;;;;20.65;9.40;;;;;;;1.93;86.19;102215.34;5018169;28;20079;-23
2022/01/26 09:43:43;;;;;;;22.52;9.50;;;;;;;1.94;86.04;102211.03;5019166;28;20077;-23
2022/01/26 09:46:12;;;;;;;19.15;9.10;;;;;;;1.94;85.62;102208.44;5021838;28;20017;-23
2022/01/26 09:48:38;;;;;;;16.92;8.95;;;;;;;1.94;85.81;102213.63;5019987;28;20029;-23
2022/01/26 09:51:05;;;;;;;16.80;8.40;;;;;;;1.92;85.17;102222.28;5020509;28;20072;-24
2022/01/26 09:53:33;;;;;;;18.95;9.25;;;;;;;1.94;85.44;102222.34;5022422;28;20068;-23
2022/01/26 09:55:58;;;;;;;20.27;9.75;;;;;;;1.94;85.06;102230.16;5021635;28;20047;-23
2022/01/26 09:58:25;;;;;;;17.38;9.00;;;;;;;1.96;85.23;102232.84;5021906;28;20482;-23
2022/01/26 10:01:01;;;;;;;18.38;9.55;;;;;;;1.97;85.32;102221.59;5018820;28;20488;-24
2022/01/26 10:03:30;;;;;;;19.95;9.68;;;;;;;1.97;85.37;102224.22;5019039;28;20025;-23
2022/01/26 10:05:57;;;;;;;17.25;7.93;;;;;;;1.98;85.01;102218.19;5022235;28;20148;-24
2022/01/26 10:19:00;;;;;;;22.88;9.23;;;;;;;1.99;85.35;102214.75;5025211;28;20026;-23
2022/01/26 10:21:26;;;;;;;21.92;9.27;;;;;;;1.99;85.16;102212.16;5016026;28;20025;-23
2022/01/26 10:23:54;;;;;;;26.90;10.65;;;;;;;1.99;85.13;102209.56;5023116;28;20013;-23
2022/01/26 10:26:20;;;;;;;22.67;10.02;;;;;;;1.99;85.22;102196.53;5018216;28;20033;-23
2022/01/26 10:29:00;;;;;;;22.10;9.68;;;;;;;1.99;85.40;102212.16;5023745;28;20029;-23
2022/01/26 10:31:30;;;;;;;22.73;9.93;;;;;;;1.99;85.35;102212.16;5015771;28;20033;-23
2022/01/26 10:34:22;;;;;;;20.30;9.55;;;;;;;2.02;85.28;102201.91;5018766;28;20017;-23
2022/01/26 10:36:57;;;;;;;22.90;10.63;;;;;;;1.99;85.38;102197.44;5018568;28;20091;-23
2022/01/26 10:39:30;;;;;;;19.73;9.68;;;;;;;2.01;85.30;102192.31;5017985;28;20543;-24
2022/01/26 10:42:00;;;;;;;21.60;10.45;;;;;;;1.99;85.23;102191.34;5017892;28;20778;-23
2022/01/26 10:44:33;;;;;;;27.95;10.50;;;;;;;2.02;85.17;102199.31;5019683;28;20028;-23
2022/01/26 10:47:01;;;;;;;26.85;10.70;;;;;;;2.01;85.31;102189.72;5017227;28;20036;-23
2022/01/26 10:52:25;;;;;;;24.25;11.00;;;;;;;2.02;85.36;102201.91;5019011;28;20030;-23
2022/01/26 10:54:51;;;;;;;27.10;9.57;;;;;;;2.01;85.54;102201.03;5019494;28;20075;-24
2022/01/26 10:57:17;;;;;;;24.52;10.25;;;;;;;2.01;85.63;102202.72;5016569;28;20041;-23
2022/01/26 10:59:45;;;;;;;22.67;11.13;;;;;;;2.02;85.47;102196.69;5018386;28;20030;-23
2022/01/26 11:02:12;;;;;;;29.85;11.18;;;;;;;2.00;85.53;102190.53;5017265;28;20030;-23
2022/01/26 11:04:41;;;;;;;23.98;11.20;;;;;;;2.01;85.59;102200.13;5018556;28;20026;-23
2022/01/26 11:07:09;;;;;;;28.75;11.75;;;;;;;1.98;85.23;102205.16;5020565;28;20482;-23
2022/01/26 11:09:37;;;;;;;28.27;11.48;;;;;;;2.00;85.42;102211.34;5017547;28;20025;-23
2022/01/26 11:12:04;;;;;;;35.92;12.25;;;;;;;2.00;85.36;102214.84;5018183;28;20021;-23
2022/01/26 11:14:42;;;;;;;25.63;10.95;;;;;;;2.00;85.21;102221.78;5020228;28;20056;-23
2022/01/26 11:17:09;;;;;;;32.92;13.23;;;;;;;2.00;85.26;102221.78;5019478;28;20144;-24
2022/01/26 11:19:47;;;;;;;31.48;13.52;;;;;;;1.99;85.39;102222.56;5029159;28;20029;-23
2022/01/26 11:22:14;;;;;;;33.92;12.70;;;;;;;1.99;85.26;102222.56;5027708;28;20442;-23
2022/01/26 11:24:49;;;;;;;31.00;13.00;;;;;;;1.99;85.15;102228.69;5024677;28;20036;-23
2022/01/26 11:27:16;;;;;;;29.98;11.88;;;;;;;1.99;85.13;102235.56;5027240;28;20037;-24
2022/01/26 11:29:46;;;;;;;31.95;12.75;;;;;;;1.98;85.30;102242.50;5028390;28;20080;-23
2022/01/26 11:32:20;;;;;;;32.80;12.70;;;;;;;1.98;85.13;102242.50;5025075;28;20082;-23
2022/01/26 11:34:49;;;;;;;36.75;14.32;;;;;;;1.97;85.10;102232.88;5023731;28;20516;-23
2022/01/26 11:37:18;;;;;;;32.47;14.45;;;;;;;1.96;85.26;102233.72;5026829;28;20082;-23
2022/01/26 11:45:21;;;;;;;33.65;13.77;;;;;;;1.99;85.38;102227.78;5029043;28;20049;-23
2022/01/26 11:48:07;;;;;;;37.38;13.48;;;;;;;1.98;85.24;102221.69;5029858;28;20037;-23
2022/01/26 11:50:34;;;;;;;36.25;12.75;;;;;;;1.97;85.47;102208.59;5027311;28;20409;-23
2022/01/26 11:53:07;;;;;;;35.90;14.07;;;;;;;1.98;85.50;102206.06;5026387;28;20030;-23
2022/01/26 11:55:57;;;;;;;31.85;13.93;;;;;;;1.98;85.46;102207.78;5028771;28;20028;-23
2022/01/26 11:58:30;;;;;;;33.28;13.27;;;;;;;1.96;84.91;102206.81;5027107;28;20025;-24
2022/01/26 12:03:44;;;;;;;40.10;13.85;;;;;;;1.98;85.22;102211.28;5019736;28;20037;-23
2022/01/26 12:06:28;;;;;;;34.35;13.43;;;;;;;1.98;85.07;102202.56;5017840;28;20577;-24
2022/01/26 12:08:56;;;;;;;36.92;15.30;;;;;;;1.99;85.46;102206.94;5008499;28;20021;-23
2022/01/26 12:11:23;;;;;;;36.70;13.63;;;;;;;1.98;85.06;102211.28;5013618;28;20026;-23
2022/01/26 12:14:04;;;;;;;30.52;13.50;;;;;;;1.99;85.06;102207.84;5001063;28;20038;-23
2022/01/26 12:16:41;;;;;;;33.30;14.77;;;;;;;2.00;85.21;102211.34;5012012;28;20032;-23
2022/01/26 12:19:24;;;;;;;33.35;13.05;;;;;;;1.99;85.54;102214.75;5013877;28;20029;-23
2022/01/26 12:36:35;;;;;;;36.25;14.50;;;;;;;1.99;85.17;102204.34;4991827;28;20041;-23
2022/01/26 12:39:04;;;;;;;29.40;12.63;;;;;;;1.99;85.32;102196.53;5013665;28;20045;-23
2022/01/26 12:41:33;;;;;;;33.20;13.45;;;;;;;2.00;85.48;102182.72;5010317;28;20041;-23
2022/01/26 12:44:07;;;;;;;33.15;12.07;;;;;;;2.00;85.18;102193.13;5015439;28;20026;-23
2022/01/26 12:46:33;;;;;;;33.03;12.63;;;;;;;1.98;84.62;102184.34;5011945;28;20034;-23
2022/01/26 12:49:08;;;;;;;28.17;12.05;;;;;;;2.00;85.25;102183.59;5013494;28;20029;-23
2022/01/26 12:51:42;;;;;;;24.83;11.18;;;;;;;1.99;84.71;102180.91;5012170;28;20476;-23
2022/01/26 12:54:09;;;;;;;33.05;11.88;;;;;;;2.00;85.36;102173.19;5011385;28;20029;-23
2022/01/26 12:56:35;;;;;;;29.92;11.07;;;;;;;2.01;85.18;102164.59;5013486;28;20398;-23
2022/01/26 12:59:09;;;;;;;36.15;13.90;;;;;;;2.01;85.12;102153.28;4994624;28;20032;-23
2022/01/26 13:01:35;;;;;;;33.47;11.98;;;;;;;2.00;85.20;102141.97;5014071;28;21883;-23
2022/01/26 13:04:03;;;;;;;36.47;12.63;;;;;;;2.01;85.31;102156.78;5016261;28;20017;-23
2022/01/26 13:06:31;;;;;;;34.83;14.57;;;;;;;2.01;85.42;102158.47;5015732;28;20038;-23
2022/01/26 13:08:59;;;;;;;37.83;14.43;;;;;;;2.02;85.35;102160.25;5024867;28;20032;-23
2022/01/26 13:11:34;;;;;;;31.30;14.70;;;;;;;2.01;85.70;102159.38;5013859;28;20135;-23
2022/01/26 13:14:18;;;;;;;32.35;14.60;;;;;;;2.02;85.53;102165.47;5013105;28;20029;-24
2022/01/26 13:20:12;;;;;;;37.65;14.48;;;;;;;2.02;85.29;102160.25;5015419;28;20416;-23
2022/01/26 13:25:34;;;;;;;42.53;14.68;;;;;;;2.02;85.49;102135.13;5019336;28;20026;-24
2022/01/26 13:36:38;;;;;;;32.78;13.90;;;;;;;2.02;85.59;102140.34;5014415;28;20107;-23
2022/01/26 13:39:17;;;;;;;39.08;14.50;;;;;;;2.02;85.62;102136.84;5014720;28;20084;-24